Aviation Digital Data Service (ADDS)

Output produced by METARs form (2051 UTC 29 July 2014)
found at http://www.aviationweather.gov/adds/metars/
 
METAR text: KSBP 291956Z 29007KT 10SM CLR 27/15 A3004 RMK AO2 SLP168 T02670150 $
Conditions at: KSBP (SAN LUIS OBISPO , CA, US) observed 1956 UTC 29 July 2014
Temperature: 26.7°C (80°F)
Dewpoint: 15.0°C (59°F) [RH = 49%]
Pressure (altimeter): 30.04 inches Hg (1017.4 mb)
[Sea-level pressure: 1016.8 mb]
Winds: from the WNW (290 degrees) at 8 MPH (7 knots; 3.6 m/s)
Visibility: 10 or more miles (16+ km)
Ceiling: at least 12,000 feet AGL
Clouds: sky clear below 12,000 feet AGL
Weather:
SOME DATA ABOVE MAY BE INACCURATE!!!
"$" is an indication the sensor requires maintenance

METAR text: KSBP 291856Z 31006KT 10SM CLR 26/15 A3005 RMK AO2 SLP172 T02560150 $
Conditions at: KSBP (SAN LUIS OBISPO , CA, US) observed 1856 UTC 29 July 2014
Temperature: 25.6°C (78°F)
Dewpoint: 15.0°C (59°F) [RH = 52%]
Pressure (altimeter): 30.05 inches Hg (1017.7 mb)
[Sea-level pressure: 1017.2 mb]
Winds: from the NW (310 degrees) at 7 MPH (6 knots; 3.1 m/s)
Visibility: 10 or more miles (16+ km)
Ceiling: at least 12,000 feet AGL
Clouds: sky clear below 12,000 feet AGL
Weather:
SOME DATA ABOVE MAY BE INACCURATE!!!
"$" is an indication the sensor requires maintenance

METAR text: KSBP 291756Z 00000KT 10SM CLR 23/16 A3005 RMK AO2 SLP174 T02280156 10233 20156 58003 $
Conditions at: KSBP (SAN LUIS OBISPO , CA, US) observed 1756 UTC 29 July 2014
Temperature: 22.8°C (73°F)
Dewpoint: 15.6°C (60°F) [RH = 64%]
Pressure (altimeter): 30.05 inches Hg (1017.7 mb)
[Sea-level pressure: 1017.4 mb]
Winds: calm
Visibility: 10 or more miles (16+ km)
Ceiling: at least 12,000 feet AGL
Clouds: sky clear below 12,000 feet AGL
Weather:
SOME DATA ABOVE MAY BE INACCURATE!!!
"$" is an indication the sensor requires maintenance

METAR text: KSBP 291656Z 00000KT 10SM CLR 21/16 A3006 RMK AO2 SLP178 T02060156 $
Conditions at: KSBP (SAN LUIS OBISPO , CA, US) observed 1656 UTC 29 July 2014
Temperature: 20.6°C (69°F)
Dewpoint: 15.6°C (60°F) [RH = 73%]
Pressure (altimeter): 30.06 inches Hg (1018.0 mb)
[Sea-level pressure: 1017.8 mb]
Winds: calm
Visibility: 10 or more miles (16+ km)
Ceiling: at least 12,000 feet AGL
Clouds: sky clear below 12,000 feet AGL
Weather:
SOME DATA ABOVE MAY BE INACCURATE!!!
"$" is an indication the sensor requires maintenance

METAR text: KSBP 291556Z 00000KT 10SM FEW004 19/16 A3007 RMK AO2 SLP180 T01940156 $
Conditions at: KSBP (SAN LUIS OBISPO , CA, US) observed 1556 UTC 29 July 2014
Temperature: 19.4°C (67°F)
Dewpoint: 15.6°C (60°F) [RH = 79%]
Pressure (altimeter): 30.07 inches Hg (1018.4 mb)
[Sea-level pressure: 1018.0 mb]
Winds: calm
Visibility: 10 or more miles (16+ km)
Ceiling: at least 12,000 feet AGL
Clouds: few clouds at 400 feet AGL
Weather:
SOME DATA ABOVE MAY BE INACCURATE!!!
"$" is an indication the sensor requires maintenance

METAR text: KSBP 291506Z 00000KT 9SM SCT004 17/16 A3006 RMK AO2 $
Conditions at: KSBP (SAN LUIS OBISPO , CA, US) observed 1506 UTC 29 July 2014
Temperature: 17.0°C (63°F)
Dewpoint: 16.0°C (61°F) [RH = 94%]
Pressure (altimeter): 30.06 inches Hg (1018.0 mb)
Winds: calm
Visibility: 9 miles (14 km)
Ceiling: at least 12,000 feet AGL
Clouds: scattered clouds at 400 feet AGL
Weather:
SOME DATA ABOVE MAY BE INACCURATE!!!
"$" is an indication the sensor requires maintenance

METAR text: KSBP 291456Z 09004KT 9SM BKN004 17/16 A3006 RMK AO2 SLP178 T01670156 53012 $
Conditions at: KSBP (SAN LUIS OBISPO , CA, US) observed 1456 UTC 29 July 2014
Temperature: 16.7°C (62°F)
Dewpoint: 15.6°C (60°F) [RH = 93%]
Pressure (altimeter): 30.06 inches Hg (1018.0 mb)
[Sea-level pressure: 1017.8 mb]
Winds: from the E (90 degrees) at 5 MPH (4 knots; 2.1 m/s)
Visibility: 9 miles (14 km)
Ceiling: 400 feet AGL
Clouds: broken clouds at 400 feet AGL
Weather:
SOME DATA ABOVE MAY BE INACCURATE!!!
"$" is an indication the sensor requires maintenance

METAR text: KSBP 291415Z 00000KT 5SM BR BKN004 16/16 A3005 RMK AO2 $
Conditions at: KSBP (SAN LUIS OBISPO , CA, US) observed 1415 UTC 29 July 2014
Temperature: 16.0°C (61°F)
Dewpoint: 16.0°C (61°F) [RH = 100%]
Pressure (altimeter): 30.05 inches Hg (1017.7 mb)
Winds: calm
Visibility: 5 miles (8 km)
Ceiling: 400 feet AGL
Clouds: broken clouds at 400 feet AGL
Weather: BR  (mist)
SOME DATA ABOVE MAY BE INACCURATE!!!
"$" is an indication the sensor requires maintenance

METAR text: KSBP 291356Z 00000KT 6SM BR SCT004 16/16 A3003 RMK AO2 SLP168 T01610156 $
Conditions at: KSBP (SAN LUIS OBISPO , CA, US) observed 1356 UTC 29 July 2014
Temperature: 16.1°C (61°F)
Dewpoint: 15.6°C (60°F) [RH = 97%]
Pressure (altimeter): 30.03 inches Hg (1017.0 mb)
[Sea-level pressure: 1016.8 mb]
Winds: calm
Visibility: 6 miles (10 km)
Ceiling: at least 12,000 feet AGL
Clouds: scattered clouds at 400 feet AGL
Weather: BR  (mist)
SOME DATA ABOVE MAY BE INACCURATE!!!
"$" is an indication the sensor requires maintenance

METAR text: KSBP 291343Z 00000KT 6SM BR SCT004 16/16 A3003 RMK AO2 $
Conditions at: KSBP (SAN LUIS OBISPO , CA, US) observed 1343 UTC 29 July 2014
Temperature: 16.0°C (61°F)
Dewpoint: 16.0°C (61°F) [RH = 100%]
Pressure (altimeter): 30.03 inches Hg (1017.0 mb)
Winds: calm
Visibility: 6 miles (10 km)
Ceiling: at least 12,000 feet AGL
Clouds: scattered clouds at 400 feet AGL
Weather: BR  (mist)
SOME DATA ABOVE MAY BE INACCURATE!!!
"$" is an indication the sensor requires maintenance

METAR text: KSBP 291309Z 00000KT 7SM BKN004 16/15 A3002 RMK AO2 $
Conditions at: KSBP (SAN LUIS OBISPO , CA, US) observed 1309 UTC 29 July 2014
Temperature: 16.0°C (61°F)
Dewpoint: 15.0°C (59°F) [RH = 94%]
Pressure (altimeter): 30.02 inches Hg (1016.7 mb)
Winds: calm
Visibility: 7 miles (11 km)
Ceiling: 400 feet AGL
Clouds: broken clouds at 400 feet AGL
Weather:
SOME DATA ABOVE MAY BE INACCURATE!!!
"$" is an indication the sensor requires maintenance

METAR text: KSBP 291256Z AUTO 00000KT 8SM FEW004 16/15 A3002 RMK AO2 SLP164 T01610150 $
Conditions at: KSBP (SAN LUIS OBISPO , CA, US) observed 1256 UTC 29 July 2014
Temperature: 16.1°C (61°F)
Dewpoint: 15.0°C (59°F) [RH = 93%]
Pressure (altimeter): 30.02 inches Hg (1016.7 mb)
[Sea-level pressure: 1016.4 mb]
Winds: calm
Visibility: 8 miles (13 km)
Ceiling: at least 12,000 feet AGL
Clouds: few clouds at 400 feet AGL
Weather:
SOME DATA ABOVE MAY BE INACCURATE!!!
"$" is an indication the sensor requires maintenance